createdAt,value
2023-01-22T00:01:18.509Z,61.70
2023-01-22T00:03:47.282Z,63.67
2023-01-22T00:06:16.130Z,62.90
2023-01-22T00:08:44.500Z,63.17
2023-01-22T00:11:13.089Z,64.73
2023-01-22T00:13:42.052Z,65.83
2023-01-22T00:16:13.111Z,68.90
2023-01-22T00:18:42.813Z,69.83
2023-01-22T00:21:11.701Z,67.30
2023-01-22T00:23:39.912Z,67.63
2023-01-22T00:26:11.196Z,70.60
2023-01-22T00:28:41.630Z,70.07
2023-01-22T00:31:11.706Z,70.17
2023-01-22T00:33:42.414Z,67.70
2023-01-22T00:36:12.556Z,51.00
2023-01-22T00:38:40.898Z,52.73
2023-01-22T00:41:09.946Z,51.20
2023-01-22T00:43:39.599Z,52.83
2023-01-22T00:46:08.615Z,51.07
2023-01-22T00:48:36.741Z,50.00
2023-01-22T00:51:08.664Z,49.17
2023-01-22T00:53:37.020Z,51.20
2023-01-22T00:56:05.691Z,50.10
2023-01-22T00:58:34.096Z,47.60
2023-01-22T01:01:02.961Z,48.03
2023-01-22T01:03:31.907Z,51.37
2023-01-22T01:06:02.107Z,69.13
2023-01-22T01:08:34.401Z,71.17
2023-01-22T01:11:04.814Z,70.10
2023-01-22T01:13:38.048Z,66.70
2023-01-22T01:16:08.236Z,68.50
2023-01-22T01:18:37.126Z,71.90
2023-01-22T01:21:07.494Z,69.93
2023-01-22T01:23:37.427Z,70.50
2023-01-22T01:26:10.070Z,70.57
2023-01-22T01:28:38.967Z,71.03
2023-01-22T01:31:09.244Z,69.27
2023-01-22T01:33:37.630Z,68.97
2023-01-22T01:36:07.878Z,69.63
2023-01-22T01:38:37.854Z,71.07
2023-01-22T01:41:06.515Z,70.90
2023-01-22T01:43:34.755Z,73.73
2023-01-22T01:46:04.948Z,73.80
2023-01-22T01:48:36.456Z,74.10
2023-01-22T01:51:10.529Z,75.80
2023-01-22T01:53:41.838Z,76.50
2023-01-22T01:56:14.027Z,78.00
2023-01-22T01:58:44.408Z,78.27
2023-01-22T02:01:15.057Z,77.03
2023-01-22T02:03:43.957Z,79.87
2023-01-22T02:06:13.693Z,78.80
2023-01-22T02:08:45.784Z,79.43
2023-01-22T02:11:14.468Z,81.43
2023-01-22T02:13:47.618Z,82.70
2023-01-22T02:16:16.014Z,84.50
2023-01-22T02:18:44.104Z,83.50
2023-01-22T02:21:36.589Z,85.87
2023-01-22T02:24:06.773Z,87.20
2023-01-22T02:26:35.228Z,88.83
2023-01-22T02:29:03.502Z,88.47
2023-01-22T02:31:31.931Z,89.53
2023-01-22T02:34:01.861Z,92.77
2023-01-22T02:36:29.956Z,91.30
2023-01-22T02:38:59.449Z,91.83
2023-01-22T02:41:28.218Z,92.00
2023-01-22T02:43:56.451Z,92.47
2023-01-22T02:46:25.888Z,93.47
2023-01-22T02:48:53.910Z,93.73
2023-01-22T02:51:22.159Z,94.57
2023-01-22T02:53:50.433Z,93.53
2023-01-22T02:56:20.276Z,94.37
2023-01-22T02:58:48.420Z,97.87
2023-01-22T03:01:20.327Z,96.87
2023-01-22T03:03:49.319Z,96.50
2023-01-22T03:06:21.649Z,96.97
2023-01-22T03:08:50.566Z,97.50
2023-01-22T03:11:20.091Z,98.97
2023-01-22T03:14:05.828Z,99.47
2023-01-22T03:16:51.690Z,98.10
2023-01-22T03:19:37.800Z,98.30
2023-01-22T03:22:05.961Z,94.37
2023-01-22T03:24:33.991Z,95.30
2023-01-22T03:27:04.273Z,93.40
2023-01-22T03:29:32.299Z,92.90
2023-01-22T03:32:00.541Z,96.67
2023-01-22T03:34:29.006Z,97.20
2023-01-22T03:36:57.071Z,96.50
2023-01-22T03:39:25.435Z,96.33
2023-01-22T03:41:53.529Z,97.00
2023-01-22T03:44:23.060Z,98.73
2023-01-22T03:46:51.463Z,98.33
2023-01-22T03:49:19.558Z,97.67
2023-01-22T03:51:47.595Z,96.80
2023-01-22T03:54:17.205Z,98.53
2023-01-22T03:56:45.328Z,100.57
2023-01-22T03:59:13.441Z,98.30
2023-01-22T04:01:42.924Z,98.70
2023-01-22T04:04:11.033Z,98.87
2023-01-22T04:06:39.111Z,98.53
2023-01-22T04:09:07.195Z,99.50
2023-01-22T04:11:35.278Z,100.47
2023-01-22T04:14:03.307Z,100.90
2023-01-22T04:16:31.423Z,99.80
2023-01-22T04:19:00.896Z,99.63
2023-01-22T04:21:29.011Z,97.50
2023-01-22T04:23:57.531Z,97.97
2023-01-22T04:26:25.674Z,99.93
2023-01-22T04:28:53.919Z,99.83
2023-01-22T04:31:22.223Z,99.50
2023-01-22T04:33:50.372Z,100.10
2023-01-22T04:36:19.669Z,98.63
2023-01-22T04:38:47.775Z,101.60
2023-01-22T04:41:15.801Z,100.93
2023-01-22T04:43:43.929Z,99.87
2023-01-22T04:46:12.128Z,101.27
2023-01-22T04:48:40.372Z,100.90
2023-01-22T04:51:08.513Z,101.13
2023-01-22T04:53:38.049Z,102.37
2023-01-22T04:56:06.648Z,100.63
2023-01-22T04:58:34.734Z,100.47
2023-01-22T05:01:03.036Z,98.90
2023-01-22T05:03:31.213Z,97.50
2023-01-22T05:06:03.155Z,99.30
2023-01-22T05:08:31.345Z,96.03
2023-01-22T05:11:03.526Z,97.20
2023-01-22T05:13:31.687Z,96.77
2023-01-22T05:15:59.878Z,95.07
2023-01-22T05:18:27.960Z,96.37
2023-01-22T05:20:56.036Z,98.50
2023-01-22T05:23:24.171Z,104.30
2023-01-22T05:25:52.473Z,97.20
2023-01-22T05:28:21.891Z,94.00
2023-01-22T05:30:50.373Z,95.20
2023-01-22T05:33:18.560Z,94.50
2023-01-22T05:35:46.481Z,96.87
2023-01-22T05:38:14.660Z,100.43
2023-01-22T05:40:42.724Z,96.33
2023-01-22T05:43:10.791Z,93.37
2023-01-22T05:45:40.395Z,93.30
2023-01-22T05:48:08.953Z,97.03
2023-01-22T05:50:37.406Z,97.07
2023-01-22T05:53:05.497Z,100.60
2023-01-22T05:55:33.691Z,99.80
2023-01-22T05:58:02.646Z,99.70
2023-01-22T06:00:31.035Z,100.50
2023-01-22T06:03:01.842Z,97.47
2023-01-22T06:05:29.961Z,95.77
2023-01-22T06:07:58.076Z,95.03
2023-01-22T06:10:26.133Z,93.40
2023-01-22T06:12:54.216Z,95.10
2023-01-22T06:15:22.379Z,93.17
2023-01-22T06:17:50.583Z,93.77
2023-01-22T06:20:20.289Z,91.90
2023-01-22T06:22:52.804Z,93.43
2023-01-22T06:25:20.924Z,91.53
2023-01-22T06:27:49.049Z,91.47
2023-01-22T06:30:19.080Z,90.53
2023-01-22T06:32:47.901Z,88.27
2023-01-22T06:35:16.068Z,89.40
2023-01-22T06:37:45.584Z,89.10
2023-01-22T06:40:14.363Z,89.33
2023-01-22T06:42:42.930Z,86.67
2023-01-22T06:45:11.688Z,85.00
2023-01-22T06:47:43.834Z,84.60
2023-01-22T06:50:12.919Z,84.17
2023-01-22T06:52:40.998Z,84.10
2023-01-22T06:55:11.213Z,82.40
2023-01-22T06:57:39.389Z,84.10
2023-01-22T07:00:08.971Z,84.00
2023-01-22T07:02:37.083Z,84.40
2023-01-22T07:05:05.330Z,87.17
2023-01-22T07:07:33.735Z,92.83
2023-01-22T07:10:02.316Z,87.33
2023-01-22T07:12:31.741Z,87.17
2023-01-22T07:14:59.855Z,86.87
2023-01-22T07:17:28.865Z,85.20
2023-01-22T07:19:56.963Z,86.80
2023-01-22T07:22:25.153Z,83.20
2023-01-22T07:24:53.226Z,83.57
2023-01-22T07:27:21.277Z,83.27
2023-01-22T07:29:50.968Z,84.20
2023-01-22T07:32:19.135Z,86.37
2023-01-22T07:34:47.262Z,85.43
2023-01-22T07:37:15.354Z,83.47
2023-01-22T07:39:43.564Z,83.20
2023-01-22T07:42:12.747Z,84.00
2023-01-22T07:44:41.303Z,79.67
2023-01-22T07:47:11.045Z,80.10
2023-01-22T07:49:39.183Z,79.73
2023-01-22T07:52:07.263Z,80.07
2023-01-22T07:54:36.472Z,85.57
2023-01-22T07:57:05.361Z,83.60
2023-01-22T07:59:33.562Z,83.70
2023-01-22T08:02:03.640Z,84.90
2023-01-22T08:04:33.286Z,81.20
2023-01-22T08:07:01.363Z,81.80
2023-01-22T08:09:29.491Z,84.77
2023-01-22T08:11:57.552Z,84.37
2023-01-22T08:14:25.645Z,83.80
2023-01-22T08:16:53.826Z,81.47
2023-01-22T08:19:21.980Z,79.67
2023-01-22T08:21:51.348Z,82.50
2023-01-22T08:24:19.417Z,81.43
2023-01-22T08:26:47.499Z,80.90
2023-01-22T08:29:16.099Z,81.00
2023-01-22T08:31:44.254Z,79.93
2023-01-22T08:34:12.420Z,79.27
2023-01-22T08:36:40.550Z,79.13
2023-01-22T08:39:10.981Z,81.23
2023-01-22T08:41:39.230Z,79.87
2023-01-22T08:44:07.601Z,79.20
2023-01-22T08:46:40.140Z,77.87
2023-01-22T08:49:08.807Z,77.50
2023-01-22T08:51:36.944Z,81.00
2023-01-22T08:54:05.191Z,80.03
2023-01-22T08:56:35.331Z,81.70
2023-01-22T08:59:06.995Z,79.97
2023-01-22T09:01:35.560Z,78.83
2023-01-22T09:04:06.303Z,84.00
2023-01-22T09:06:34.586Z,81.03
2023-01-22T09:09:02.874Z,81.63
2023-01-22T09:11:31.333Z,83.33
2023-01-22T09:14:01.607Z,82.93
2023-01-22T09:16:30.227Z,85.77
2023-01-22T09:18:59.256Z,86.10
2023-01-22T09:21:27.589Z,86.37
2023-01-22T09:23:55.752Z,88.40
2023-01-22T09:26:24.361Z,86.30
2023-01-22T09:28:52.507Z,87.00
2023-01-22T09:31:22.676Z,88.77
2023-01-22T09:33:51.332Z,84.63
2023-01-22T09:36:19.326Z,87.83
2023-01-22T09:38:48.161Z,86.27
2023-01-22T09:41:21.024Z,84.83
2023-01-22T09:43:53.166Z,82.40
2023-01-22T09:46:27.890Z,84.83
2023-01-22T09:49:02.403Z,90.43
2023-01-22T09:51:31.061Z,85.93
2023-01-22T09:54:02.425Z,87.43
2023-01-22T09:56:36.608Z,85.50
2023-01-22T09:59:07.124Z,86.27
2023-01-22T10:01:37.774Z,87.60
2023-01-22T10:04:20.039Z,86.60
2023-01-22T10:06:49.975Z,87.13
2023-01-22T10:09:21.469Z,85.67
2023-01-22T10:11:53.875Z,73.90
2023-01-22T10:14:25.700Z,72.70
2023-01-22T10:16:57.227Z,71.43
2023-01-22T10:19:28.560Z,71.47
2023-01-22T10:22:01.596Z,73.50
2023-01-22T10:24:30.266Z,71.47
2023-01-22T10:26:59.662Z,70.80
2023-01-22T10:29:33.705Z,70.00
2023-01-22T10:32:16.646Z,67.87
2023-01-22T10:34:44.887Z,66.20
2023-01-22T10:37:16.901Z,64.67
2023-01-22T10:39:47.511Z,62.37
2023-01-22T10:42:18.299Z,67.13
2023-01-22T10:44:46.988Z,65.50
2023-01-22T10:47:22.172Z,65.60
2023-01-22T10:50:04.335Z,63.50
2023-01-22T10:52:39.302Z,62.87
2023-01-22T10:55:08.564Z,63.03
2023-01-22T10:57:37.909Z,59.17
2023-01-22T11:00:22.268Z,59.33
2023-01-22T11:02:52.221Z,56.20
2023-01-22T11:05:21.701Z,55.60
2023-01-22T11:07:53.561Z,57.03
2023-01-22T11:10:26.288Z,59.07
2023-01-22T11:12:59.589Z,57.40
2023-01-22T11:15:35.709Z,61.90
2023-01-22T11:18:07.215Z,58.37
2023-01-22T11:20:45.322Z,56.50
2023-01-22T11:23:20.339Z,55.40
2023-01-22T11:26:03.045Z,57.00
2023-01-22T11:28:42.578Z,61.70
2023-01-22T11:31:24.801Z,56.67
2023-01-22T11:34:40.706Z,54.43
2023-01-22T11:37:14.085Z,53.80
2023-01-22T11:39:56.099Z,54.23
2023-01-22T11:42:35.982Z,52.20
2023-01-22T11:45:19.743Z,51.70
2023-01-22T11:48:03.050Z,51.50
2023-01-22T11:50:40.116Z,50.73
2023-01-22T11:53:27.120Z,50.63
2023-01-22T11:56:11.670Z,51.50
2023-01-22T11:58:46.077Z,54.37
2023-01-22T12:01:25.847Z,52.37
2023-01-22T12:04:31.282Z,52.63
2023-01-22T12:07:24.454Z,52.57
2023-01-22T12:10:04.735Z,53.30
2023-01-22T12:12:42.086Z,52.50
2023-01-22T12:15:26.298Z,51.77
2023-01-22T12:18:07.829Z,50.20
2023-01-22T12:20:58.682Z,51.50
2023-01-22T12:23:33.865Z,50.60
2023-01-22T12:26:06.167Z,50.60
2023-01-22T12:28:41.716Z,52.10
2023-01-22T12:31:15.715Z,48.43
2023-01-22T12:33:44.634Z,48.57
2023-01-22T12:36:20.751Z,46.53
2023-01-22T12:38:55.330Z,44.40
2023-01-22T12:41:34.614Z,45.33
2023-01-22T12:44:12.400Z,44.10
2023-01-22T12:46:52.789Z,42.70
2023-01-22T12:49:21.882Z,44.10
2023-01-22T12:51:51.719Z,43.00
2023-01-22T12:54:24.161Z,43.37
2023-01-22T12:56:57.550Z,42.97
2023-01-22T12:59:41.639Z,43.53
2023-01-22T13:02:24.665Z,43.63
2023-01-22T13:04:54.168Z,43.93
2023-01-22T13:07:25.062Z,45.40
2023-01-22T13:10:03.727Z,46.90
2023-01-22T13:12:45.681Z,49.03
2023-01-22T13:15:21.839Z,47.57
2023-01-22T13:18:06.432Z,47.77
2023-01-22T13:20:38.571Z,49.63
2023-01-22T13:23:08.653Z,49.77
2023-01-22T13:25:39.183Z,48.77
2023-01-22T13:28:11.323Z,48.37
2023-01-22T13:30:40.023Z,46.67
2023-01-22T13:33:13.343Z,45.10
2023-01-22T13:35:43.959Z,44.70
2023-01-22T13:38:23.661Z,44.20
2023-01-22T13:40:58.207Z,44.10
2023-01-22T13:43:28.483Z,44.13
2023-01-22T13:45:58.829Z,45.10
2023-01-22T13:48:27.732Z,43.70
2023-01-22T13:50:59.821Z,44.10
2023-01-22T13:53:32.507Z,44.30
2023-01-22T13:56:02.702Z,43.53
2023-01-22T13:58:52.724Z,45.20
2023-01-22T14:01:32.059Z,43.63
2023-01-22T14:04:02.345Z,44.00
2023-01-22T14:06:32.581Z,45.30
2023-01-22T14:09:00.763Z,46.47
2023-01-22T14:11:41.206Z,46.67
2023-01-22T14:14:20.390Z,46.40
2023-01-22T14:16:49.435Z,47.77
2023-01-22T14:19:17.641Z,49.50
2023-01-22T14:21:46.085Z,49.70
2023-01-22T14:24:14.169Z,49.23
2023-01-22T14:26:43.740Z,48.23
2023-01-22T14:29:11.865Z,49.27
2023-01-22T14:31:40.191Z,47.60
2023-01-22T14:34:11.171Z,47.70
2023-01-22T14:36:39.652Z,47.63
2023-01-22T14:39:08.050Z,49.07
2023-01-22T14:41:36.078Z,50.87
2023-01-22T14:44:05.899Z,50.27
2023-01-22T14:46:34.027Z,50.33
2023-01-22T14:49:02.366Z,51.30
2023-01-22T14:51:30.530Z,49.80
2023-01-22T14:53:59.437Z,51.50
2023-01-22T14:56:27.550Z,51.30
2023-01-22T14:58:55.665Z,50.83
2023-01-22T15:01:25.190Z,49.33
2023-01-22T15:03:54.188Z,51.97
2023-01-22T15:06:22.378Z,51.60
2023-01-22T15:08:50.358Z,51.07
2023-01-22T15:11:18.450Z,54.33
2023-01-22T15:13:46.543Z,55.73
2023-01-22T15:16:14.612Z,50.93
2023-01-22T15:18:44.028Z,50.07
2023-01-22T15:21:12.134Z,52.17
2023-01-22T15:23:40.175Z,54.67
2023-01-22T15:26:09.989Z,51.93
2023-01-22T15:28:38.027Z,52.87
2023-01-22T15:31:07.808Z,52.27
2023-01-22T15:33:36.221Z,52.50
2023-01-22T15:36:06.576Z,54.13
2023-01-22T15:38:34.841Z,52.90
2023-01-22T15:41:04.664Z,53.13
2023-01-22T15:43:32.914Z,53.33
2023-01-22T15:46:01.070Z,50.77
2023-01-22T15:48:29.169Z,53.30
2023-01-22T15:51:08.731Z,54.60
2023-01-22T15:53:37.113Z,52.70
2023-01-22T15:56:06.432Z,54.40
2023-01-22T15:58:35.100Z,54.73
2023-01-22T16:01:03.303Z,54.73
2023-01-22T16:03:31.612Z,55.57
2023-01-22T16:06:10.645Z,54.80
2023-01-22T16:08:38.861Z,57.30
2023-01-22T16:11:07.721Z,62.17
2023-01-22T16:13:36.440Z,59.17
2023-01-22T16:16:06.569Z,62.47
2023-01-22T16:18:35.853Z,57.10
2023-01-22T16:21:05.039Z,56.43
2023-01-22T16:23:37.362Z,56.77
2023-01-22T16:26:06.819Z,55.47
2023-01-22T16:28:34.900Z,56.77
2023-01-22T16:31:07.253Z,57.17
2023-01-22T16:33:37.679Z,55.00
2023-01-22T16:36:07.810Z,54.93
2023-01-22T16:38:37.831Z,54.67
2023-01-22T16:41:25.527Z,55.13
2023-01-22T16:43:55.401Z,57.57
2023-01-22T16:46:26.519Z,56.80
2023-01-22T16:48:59.908Z,55.97
2023-01-22T16:51:29.832Z,54.63
2023-01-22T16:53:59.349Z,54.73
2023-01-22T16:56:27.623Z,55.70
2023-01-22T16:58:55.654Z,57.87
2023-01-22T17:01:23.758Z,55.67
2023-01-22T17:03:51.933Z,54.73
2023-01-22T17:06:26.106Z,54.50
2023-01-22T17:08:55.068Z,56.57
2023-01-22T17:11:24.731Z,57.60
2023-01-22T17:13:53.396Z,58.37
2023-01-22T17:16:21.492Z,57.77
2023-01-22T17:18:49.578Z,58.83
2023-01-22T17:21:19.911Z,58.37
2023-01-22T17:23:48.342Z,57.37
2023-01-22T17:26:17.464Z,59.03
2023-01-22T17:28:47.334Z,57.67
2023-01-22T17:31:18.614Z,60.10
2023-01-22T17:33:46.925Z,59.27
2023-01-22T17:36:16.771Z,58.60
2023-01-22T17:38:44.804Z,59.87
2023-01-22T17:41:14.547Z,60.50
2023-01-22T17:43:43.708Z,60.47
2023-01-22T17:46:15.621Z,62.23
2023-01-22T17:48:44.363Z,60.87
2023-01-22T17:51:14.626Z,62.20
2023-01-22T17:53:44.465Z,60.70
2023-01-22T17:56:14.538Z,58.73
2023-01-22T17:58:43.835Z,58.77
2023-01-22T18:01:16.196Z,58.40
2023-01-22T18:03:44.876Z,56.27
2023-01-22T18:06:13.639Z,57.97
2023-01-22T18:08:42.424Z,60.67
2023-01-22T18:11:13.233Z,60.83
2023-01-22T18:13:41.462Z,61.07
2023-01-22T18:16:19.211Z,59.43
2023-01-22T18:18:47.581Z,58.80
2023-01-22T18:21:19.028Z,58.23
2023-01-22T18:23:47.922Z,60.40
2023-01-22T18:26:19.795Z,63.00
2023-01-22T18:28:47.858Z,62.37
2023-01-22T18:31:18.751Z,62.53
2023-01-22T18:33:48.340Z,61.17
2023-01-22T18:36:18.605Z,68.07
2023-01-22T18:38:47.007Z,67.97
2023-01-22T18:41:18.796Z,65.77
2023-01-22T18:43:49.005Z,63.40
2023-01-22T18:46:19.058Z,62.17
2023-01-22T18:48:47.027Z,61.73
2023-01-22T18:51:15.107Z,62.47
2023-01-22T18:53:43.397Z,63.23
2023-01-22T18:56:13.075Z,64.07
2023-01-22T18:58:44.412Z,63.03
2023-01-22T19:01:14.757Z,64.10
2023-01-22T19:03:46.126Z,65.20
2023-01-22T19:06:22.739Z,62.73
2023-01-22T19:08:56.299Z,64.70
2023-01-22T19:11:25.960Z,66.53
2023-01-22T19:13:55.362Z,66.80
2023-01-22T19:16:24.941Z,67.47
2023-01-22T19:18:57.368Z,66.33
2023-01-22T19:21:26.934Z,64.33
2023-01-22T19:23:57.663Z,64.93
2023-01-22T19:26:28.804Z,66.10
2023-01-22T19:28:59.199Z,67.13
2023-01-22T19:31:29.245Z,66.87
2023-01-22T19:33:59.383Z,65.80
2023-01-22T19:36:30.088Z,64.23
2023-01-22T19:38:59.446Z,66.40
2023-01-22T19:41:28.586Z,65.43
2023-01-22T19:43:58.471Z,62.17
2023-01-22T19:46:27.539Z,64.63
2023-01-22T19:48:56.971Z,64.27
2023-01-22T19:51:30.742Z,63.20
2023-01-22T19:54:01.008Z,62.60
2023-01-22T19:56:32.075Z,64.03
2023-01-22T19:59:02.721Z,62.00
2023-01-22T20:01:31.671Z,61.47
2023-01-22T20:04:00.764Z,62.93
2023-01-22T20:06:30.593Z,63.53
2023-01-22T20:08:58.818Z,62.30
2023-01-22T20:11:27.304Z,64.80
2023-01-22T20:13:55.549Z,63.70
2023-01-22T20:16:26.137Z,65.10
2023-01-22T20:18:56.235Z,67.50
2023-01-22T20:21:27.934Z,66.70
2023-01-22T20:23:57.527Z,65.40
2023-01-22T20:26:25.587Z,67.17
2023-01-22T20:28:53.670Z,65.70
2023-01-22T20:31:24.205Z,66.30
2023-01-22T20:33:54.839Z,66.17
2023-01-22T20:36:23.555Z,67.00
2023-01-22T20:38:53.568Z,67.47
2023-01-22T20:41:24.234Z,67.83
2023-01-22T20:43:53.929Z,63.80
2023-01-22T20:46:24.232Z,67.80
2023-01-22T20:48:53.269Z,68.53
2023-01-22T20:51:24.496Z,66.50
2023-01-22T20:53:54.641Z,68.93
2023-01-22T20:56:28.418Z,66.77
2023-01-22T20:58:57.522Z,67.53
2023-01-22T21:01:26.447Z,67.33
2023-01-22T21:03:55.889Z,69.17
2023-01-22T21:06:24.652Z,67.70
2023-01-22T21:08:56.101Z,66.27
2023-01-22T21:11:27.176Z,66.93
2023-01-22T21:13:57.485Z,67.17
2023-01-22T21:16:27.263Z,66.87
2023-01-22T21:18:56.608Z,65.33
2023-01-22T21:21:25.321Z,67.13
2023-01-22T21:23:55.186Z,68.80
2023-01-22T21:26:26.284Z,68.97
2023-01-22T21:28:56.819Z,71.47
2023-01-22T21:31:25.975Z,69.47
2023-01-22T21:34:02.439Z,68.93
2023-01-22T21:36:31.792Z,72.07
2023-01-22T21:39:00.065Z,71.53
2023-01-22T21:41:29.464Z,71.10
2023-01-22T21:44:15.109Z,70.83
2023-01-22T21:46:45.136Z,69.77
2023-01-22T21:49:18.561Z,72.90
2023-01-22T21:51:48.084Z,73.07
2023-01-22T21:54:18.054Z,70.53
2023-01-22T21:56:47.539Z,70.07
2023-01-22T21:59:15.569Z,70.90
2023-01-22T22:01:44.940Z,69.70
2023-01-22T22:04:15.042Z,73.53
2023-01-22T22:06:43.566Z,71.87
2023-01-22T22:09:13.580Z,70.60
2023-01-22T22:11:41.550Z,71.50
2023-01-22T22:14:11.552Z,73.37
2023-01-22T22:16:39.487Z,72.07
2023-01-22T22:19:07.627Z,73.23
2023-01-22T22:21:35.943Z,75.73
2023-01-22T22:24:03.970Z,71.13
2023-01-22T22:26:32.093Z,76.23
2023-01-22T22:29:00.038Z,73.57
2023-01-22T22:31:29.615Z,70.90
2023-01-22T22:33:58.224Z,70.80
2023-01-22T22:36:28.100Z,68.97
2023-01-22T22:38:56.630Z,69.17
2023-01-22T22:41:26.607Z,69.17
2023-01-22T22:43:56.470Z,72.70
2023-01-22T22:46:26.319Z,68.37
2023-01-22T22:48:57.731Z,69.67
2023-01-22T22:51:27.536Z,73.70
2023-01-22T22:53:57.051Z,75.90
2023-01-22T22:56:25.991Z,74.33
2023-01-22T22:58:54.338Z,74.83
2023-01-22T23:01:24.215Z,73.83
2023-01-22T23:03:52.345Z,73.40
2023-01-22T23:06:23.909Z,74.10
2023-01-22T23:08:54.588Z,74.33
2023-01-22T23:11:26.204Z,76.20
2023-01-22T23:13:54.937Z,77.03
2023-01-22T23:16:23.849Z,76.90
2023-01-22T23:18:53.076Z,77.20
2023-01-22T23:21:24.544Z,77.30
2023-01-22T23:23:53.603Z,77.23
2023-01-22T23:26:28.101Z,77.90
2023-01-22T23:28:57.958Z,78.00
2023-01-22T23:31:27.505Z,77.80
2023-01-22T23:33:56.516Z,76.57
2023-01-22T23:36:27.075Z,78.70
2023-01-22T23:38:55.966Z,80.10
2023-01-22T23:41:24.836Z,79.27
2023-01-22T23:43:52.783Z,77.57
2023-01-22T23:46:23.095Z,76.43
2023-01-22T23:48:51.911Z,78.60
2023-01-22T23:51:20.382Z,74.97
2023-01-22T23:53:52.332Z,75.47
2023-01-22T23:56:21.704Z,74.73
2023-01-22T23:58:49.891Z,75.43
